sensor_id;sensor_type;location;lat;lon;timestamp;P1;durP1;ratioP1;P2;durP2;ratioP2
46318;SDS011;32042;50.916;2.926;2023-05-17T00:00:56;5.43;;;2.40;;
46318;SDS011;32042;50.916;2.926;2023-05-17T00:03:23;5.23;;;2.57;;
46318;SDS011;32042;50.916;2.926;2023-05-17T00:05:49;4.47;;;2.17;;
46318;SDS011;32042;50.916;2.926;2023-05-17T00:08:15;7.03;;;2.20;;
46318;SDS011;32042;50.916;2.926;2023-05-17T00:10:41;7.93;;;2.20;;
46318;SDS011;32042;50.916;2.926;2023-05-17T00:13:07;5.90;;;1.97;;
46318;SDS011;32042;50.916;2.926;2023-05-17T00:15:34;3.70;;;2.47;;
46318;SDS011;32042;50.916;2.926;2023-05-17T00:18:00;5.23;;;1.83;;
46318;SDS011;32042;50.916;2.926;2023-05-17T00:20:26;5.60;;;2.57;;
46318;SDS011;32042;50.916;2.926;2023-05-17T00:22:53;3.43;;;2.03;;
46318;SDS011;32042;50.916;2.926;2023-05-17T00:25:19;6.63;;;2.60;;
46318;SDS011;32042;50.916;2.926;2023-05-17T00:27:45;3.13;;;1.90;;
46318;SDS011;32042;50.916;2.926;2023-05-17T00:30:11;3.70;;;2.43;;
46318;SDS011;32042;50.916;2.926;2023-05-17T00:32:38;7.83;;;2.43;;
46318;SDS011;32042;50.916;2.926;2023-05-17T00:35:04;3.43;;;1.80;;
46318;SDS011;32042;50.916;2.926;2023-05-17T00:37:30;4.23;;;1.90;;
46318;SDS011;32042;50.916;2.926;2023-05-17T00:39:56;3.33;;;2.50;;
46318;SDS011;32042;50.916;2.926;2023-05-17T00:42:22;3.90;;;2.47;;
46318;SDS011;32042;50.916;2.926;2023-05-17T00:44:48;2.50;;;2.00;;
46318;SDS011;32042;50.916;2.926;2023-05-17T00:47:15;5.67;;;2.10;;
46318;SDS011;32042;50.916;2.926;2023-05-17T00:49:41;5.70;;;2.40;;
46318;SDS011;32042;50.916;2.926;2023-05-17T00:52:07;5.23;;;2.67;;
46318;SDS011;32042;50.916;2.926;2023-05-17T00:54:33;7.23;;;2.70;;
46318;SDS011;32042;50.916;2.926;2023-05-17T00:56:59;3.43;;;2.23;;
46318;SDS011;32042;50.916;2.926;2023-05-17T00:59:25;6.87;;;2.60;;
46318;SDS011;32042;50.916;2.926;2023-05-17T01:01:52;3.57;;;2.30;;
46318;SDS011;32042;50.916;2.926;2023-05-17T01:04:18;3.70;;;2.30;;
46318;SDS011;32042;50.916;2.926;2023-05-17T01:06:45;5.57;;;2.90;;
46318;SDS011;32042;50.916;2.926;2023-05-17T01:09:11;8.13;;;2.27;;
46318;SDS011;32042;50.916;2.926;2023-05-17T01:17:05;4.00;;;2.50;;
46318;SDS011;32042;50.916;2.926;2023-05-17T01:19:42;3.13;;;2.30;;
46318;SDS011;32042;50.916;2.926;2023-05-17T01:27:17;4.33;;;2.60;;
46318;SDS011;32042;50.916;2.926;2023-05-17T01:29:44;6.53;;;2.50;;
46318;SDS011;32042;50.916;2.926;2023-05-17T01:32:12;6.53;;;2.30;;
46318;SDS011;32042;50.916;2.926;2023-05-17T01:34:40;4.50;;;2.17;;
46318;SDS011;32042;50.916;2.926;2023-05-17T01:37:06;4.97;;;2.30;;
46318;SDS011;32042;50.916;2.926;2023-05-17T01:39:32;5.03;;;2.60;;
46318;SDS011;32042;50.916;2.926;2023-05-17T01:42:20;7.23;;;2.93;;
46318;SDS011;32042;50.916;2.926;2023-05-17T01:44:55;5.27;;;2.30;;
46318;SDS011;32042;50.916;2.926;2023-05-17T01:49:54;6.07;;;2.50;;
46318;SDS011;32042;50.916;2.926;2023-05-17T01:52:26;3.90;;;2.73;;
46318;SDS011;32042;50.916;2.926;2023-05-17T01:54:53;4.50;;;2.37;;
46318;SDS011;32042;50.916;2.926;2023-05-17T01:57:23;3.77;;;2.50;;
46318;SDS011;32042;50.916;2.926;2023-05-17T01:59:51;6.47;;;2.57;;
46318;SDS011;32042;50.916;2.926;2023-05-17T02:02:19;5.03;;;3.20;;
46318;SDS011;32042;50.916;2.926;2023-05-17T02:04:46;4.53;;;2.20;;
46318;SDS011;32042;50.916;2.926;2023-05-17T02:07:12;5.60;;;2.60;;
46318;SDS011;32042;50.916;2.926;2023-05-17T02:09:38;6.97;;;2.80;;
46318;SDS011;32042;50.916;2.926;2023-05-17T02:12:05;5.90;;;2.50;;
46318;SDS011;32042;50.916;2.926;2023-05-17T02:14:31;4.13;;;2.50;;
46318;SDS011;32042;50.916;2.926;2023-05-17T02:16:57;3.47;;;2.37;;
46318;SDS011;32042;50.916;2.926;2023-05-17T02:19:23;3.00;;;2.27;;
46318;SDS011;32042;50.916;2.926;2023-05-17T02:21:49;4.23;;;2.77;;
46318;SDS011;32042;50.916;2.926;2023-05-17T02:24:15;5.07;;;2.80;;
46318;SDS011;32042;50.916;2.926;2023-05-17T02:26:41;7.57;;;2.60;;
46318;SDS011;32042;50.916;2.926;2023-05-17T02:29:08;3.43;;;2.27;;
46318;SDS011;32042;50.916;2.926;2023-05-17T02:31:35;3.53;;;2.20;;
46318;SDS011;32042;50.916;2.926;2023-05-17T02:34:02;3.43;;;2.23;;
46318;SDS011;32042;50.916;2.926;2023-05-17T02:36:29;5.47;;;2.30;;
46318;SDS011;32042;50.916;2.926;2023-05-17T02:38:57;6.07;;;2.30;;
46318;SDS011;32042;50.916;2.926;2023-05-17T02:41:24;3.03;;;2.30;;
46318;SDS011;32042;50.916;2.926;2023-05-17T02:43:51;3.93;;;2.30;;
46318;SDS011;32042;50.916;2.926;2023-05-17T02:46:17;4.43;;;2.33;;
46318;SDS011;32042;50.916;2.926;2023-05-17T02:48:44;6.83;;;2.73;;
46318;SDS011;32042;50.916;2.926;2023-05-17T02:51:11;4.63;;;2.20;;
46318;SDS011;32042;50.916;2.926;2023-05-17T02:53:37;4.00;;;2.77;;
46318;SDS011;32042;50.916;2.926;2023-05-17T02:56:03;3.67;;;2.80;;
46318;SDS011;32042;50.916;2.926;2023-05-17T02:58:30;4.67;;;2.63;;
46318;SDS011;32042;50.916;2.926;2023-05-17T03:00:56;3.23;;;2.57;;
46318;SDS011;32042;50.916;2.926;2023-05-17T03:03:22;5.53;;;3.07;;
46318;SDS011;32042;50.916;2.926;2023-05-17T03:05:48;4.30;;;2.20;;
46318;SDS011;32042;50.916;2.926;2023-05-17T03:08:14;9.57;;;2.53;;
46318;SDS011;32042;50.916;2.926;2023-05-17T03:10:40;11.30;;;3.00;;
46318;SDS011;32042;50.916;2.926;2023-05-17T03:13:06;4.00;;;2.77;;
46318;SDS011;32042;50.916;2.926;2023-05-17T03:15:32;4.47;;;2.93;;
46318;SDS011;32042;50.916;2.926;2023-05-17T03:17:58;7.23;;;3.17;;
46318;SDS011;32042;50.916;2.926;2023-05-17T03:20:24;6.67;;;2.60;;
46318;SDS011;32042;50.916;2.926;2023-05-17T03:22:50;8.47;;;3.10;;
46318;SDS011;32042;50.916;2.926;2023-05-17T03:25:17;6.23;;;3.00;;
46318;SDS011;32042;50.916;2.926;2023-05-17T03:27:43;3.40;;;2.57;;
46318;SDS011;32042;50.916;2.926;2023-05-17T03:30:09;4.50;;;3.10;;
46318;SDS011;32042;50.916;2.926;2023-05-17T03:32:37;6.27;;;3.00;;
46318;SDS011;32042;50.916;2.926;2023-05-17T03:35:03;7.73;;;3.10;;
46318;SDS011;32042;50.916;2.926;2023-05-17T03:37:29;4.87;;;2.73;;
46318;SDS011;32042;50.916;2.926;2023-05-17T03:39:56;8.57;;;3.30;;
46318;SDS011;32042;50.916;2.926;2023-05-17T03:42:22;8.00;;;3.03;;
46318;SDS011;32042;50.916;2.926;2023-05-17T03:44:48;6.00;;;3.43;;
46318;SDS011;32042;50.916;2.926;2023-05-17T03:47:14;4.27;;;3.83;;
46318;SDS011;32042;50.916;2.926;2023-05-17T03:49:40;4.43;;;3.17;;
46318;SDS011;32042;50.916;2.926;2023-05-17T03:52:06;9.70;;;3.60;;
46318;SDS011;32042;50.916;2.926;2023-05-17T03:54:33;6.77;;;4.30;;
46318;SDS011;32042;50.916;2.926;2023-05-17T03:56:59;11.30;;;4.80;;
46318;SDS011;32042;50.916;2.926;2023-05-17T03:59:25;10.53;;;5.17;;
46318;SDS011;32042;50.916;2.926;2023-05-17T04:01:51;9.13;;;5.00;;
46318;SDS011;32042;50.916;2.926;2023-05-17T04:04:17;9.27;;;4.87;;
46318;SDS011;32042;50.916;2.926;2023-05-17T04:06:43;9.43;;;4.70;;
46318;SDS011;32042;50.916;2.926;2023-05-17T04:09:09;6.90;;;5.13;;
46318;SDS011;32042;50.916;2.926;2023-05-17T04:11:37;6.40;;;5.50;;
46318;SDS011;32042;50.916;2.926;2023-05-17T04:14:05;9.17;;;4.20;;
46318;SDS011;32042;50.916;2.926;2023-05-17T04:16:31;8.13;;;4.00;;
46318;SDS011;32042;50.916;2.926;2023-05-17T04:18:58;10.67;;;5.63;;
46318;SDS011;32042;50.916;2.926;2023-05-17T04:21:24;6.87;;;4.77;;
46318;SDS011;32042;50.916;2.926;2023-05-17T04:23:50;8.87;;;5.17;;
46318;SDS011;32042;50.916;2.926;2023-05-17T04:26:16;8.43;;;3.83;;
46318;SDS011;32042;50.916;2.926;2023-05-17T04:28:43;11.33;;;5.00;;
46318;SDS011;32042;50.916;2.926;2023-05-17T04:31:09;9.40;;;4.60;;
46318;SDS011;32042;50.916;2.926;2023-05-17T04:33:35;8.43;;;4.63;;
46318;SDS011;32042;50.916;2.926;2023-05-17T04:36:01;10.33;;;5.50;;
46318;SDS011;32042;50.916;2.926;2023-05-17T04:38:28;6.30;;;4.53;;
46318;SDS011;32042;50.916;2.926;2023-05-17T04:40:59;10.77;;;4.67;;
46318;SDS011;32042;50.916;2.926;2023-05-17T04:43:26;9.97;;;4.70;;
46318;SDS011;32042;50.916;2.926;2023-05-17T04:45:55;13.77;;;4.83;;
46318;SDS011;32042;50.916;2.926;2023-05-17T04:48:22;11.77;;;5.83;;
46318;SDS011;32042;50.916;2.926;2023-05-17T04:50:48;7.73;;;5.03;;
46318;SDS011;32042;50.916;2.926;2023-05-17T04:53:14;7.97;;;4.70;;
46318;SDS011;32042;50.916;2.926;2023-05-17T04:55:41;14.73;;;5.87;;
46318;SDS011;32042;50.916;2.926;2023-05-17T04:58:07;7.87;;;4.97;;
46318;SDS011;32042;50.916;2.926;2023-05-17T05:00:33;10.83;;;5.13;;
46318;SDS011;32042;50.916;2.926;2023-05-17T05:03:00;10.43;;;4.80;;
46318;SDS011;32042;50.916;2.926;2023-05-17T05:05:28;8.67;;;4.60;;
46318;SDS011;32042;50.916;2.926;2023-05-17T05:07:55;14.57;;;5.00;;
46318;SDS011;32042;50.916;2.926;2023-05-17T05:10:22;8.33;;;5.50;;
46318;SDS011;32042;50.916;2.926;2023-05-17T05:12:48;8.37;;;5.13;;
46318;SDS011;32042;50.916;2.926;2023-05-17T05:15:14;7.60;;;5.60;;
46318;SDS011;32042;50.916;2.926;2023-05-17T05:17:40;9.67;;;5.77;;
46318;SDS011;32042;50.916;2.926;2023-05-17T05:20:07;8.57;;;4.80;;
46318;SDS011;32042;50.916;2.926;2023-05-17T05:22:34;8.70;;;5.30;;
46318;SDS011;32042;50.916;2.926;2023-05-17T05:25:00;8.07;;;5.23;;
46318;SDS011;32042;50.916;2.926;2023-05-17T05:27:26;6.73;;;4.80;;
46318;SDS011;32042;50.916;2.926;2023-05-17T05:29:53;8.93;;;5.43;;
46318;SDS011;32042;50.916;2.926;2023-05-17T05:32:19;7.97;;;5.33;;
46318;SDS011;32042;50.916;2.926;2023-05-17T05:34:45;7.03;;;4.83;;
46318;SDS011;32042;50.916;2.926;2023-05-17T05:37:11;15.03;;;5.63;;
46318;SDS011;32042;50.916;2.926;2023-05-17T05:39:37;7.20;;;4.37;;
46318;SDS011;32042;50.916;2.926;2023-05-17T05:42:03;11.50;;;5.03;;
46318;SDS011;32042;50.916;2.926;2023-05-17T05:44:29;8.07;;;5.23;;
46318;SDS011;32042;50.916;2.926;2023-05-17T05:46:56;7.97;;;5.03;;
46318;SDS011;32042;50.916;2.926;2023-05-17T05:49:22;10.23;;;5.27;;
46318;SDS011;32042;50.916;2.926;2023-05-17T05:51:48;10.10;;;5.00;;
46318;SDS011;32042;50.916;2.926;2023-05-17T05:54:14;8.73;;;4.57;;
46318;SDS011;32042;50.916;2.926;2023-05-17T05:56:40;5.10;;;4.60;;
46318;SDS011;32042;50.916;2.926;2023-05-17T05:59:06;6.87;;;4.83;;
46318;SDS011;32042;50.916;2.926;2023-05-17T06:01:32;8.67;;;4.90;;
46318;SDS011;32042;50.916;2.926;2023-05-17T06:03:58;10.63;;;5.03;;
46318;SDS011;32042;50.916;2.926;2023-05-17T06:06:24;7.60;;;4.87;;
46318;SDS011;32042;50.916;2.926;2023-05-17T06:08:50;7.70;;;4.57;;
46318;SDS011;32042;50.916;2.926;2023-05-17T06:11:16;7.70;;;5.10;;
46318;SDS011;32042;50.916;2.926;2023-05-17T06:13:44;14.03;;;4.87;;
46318;SDS011;32042;50.916;2.926;2023-05-17T06:16:10;9.03;;;5.37;;
46318;SDS011;32042;50.916;2.926;2023-05-17T06:18:36;11.83;;;4.83;;
46318;SDS011;32042;50.916;2.926;2023-05-17T06:21:02;7.90;;;4.63;;
46318;SDS011;32042;50.916;2.926;2023-05-17T06:23:29;14.80;;;4.93;;
46318;SDS011;32042;50.916;2.926;2023-05-17T06:25:55;9.43;;;4.30;;
46318;SDS011;32042;50.916;2.926;2023-05-17T06:28:21;8.00;;;4.70;;
46318;SDS011;32042;50.916;2.926;2023-05-17T06:30:47;7.90;;;4.80;;
46318;SDS011;32042;50.916;2.926;2023-05-17T06:33:13;9.47;;;4.93;;
46318;SDS011;32042;50.916;2.926;2023-05-17T06:35:39;9.50;;;4.70;;
46318;SDS011;32042;50.916;2.926;2023-05-17T06:38:05;8.07;;;4.93;;
46318;SDS011;32042;50.916;2.926;2023-05-17T06:40:31;9.83;;;4.97;;
46318;SDS011;32042;50.916;2.926;2023-05-17T06:42:57;9.23;;;4.87;;
46318;SDS011;32042;50.916;2.926;2023-05-17T06:45:26;15.83;;;5.07;;
46318;SDS011;32042;50.916;2.926;2023-05-17T06:47:52;8.90;;;5.23;;
46318;SDS011;32042;50.916;2.926;2023-05-17T06:50:18;10.13;;;4.53;;
46318;SDS011;32042;50.916;2.926;2023-05-17T06:52:44;8.13;;;5.07;;
46318;SDS011;32042;50.916;2.926;2023-05-17T06:55:10;11.43;;;5.63;;
46318;SDS011;32042;50.916;2.926;2023-05-17T06:57:36;10.67;;;5.20;;
46318;SDS011;32042;50.916;2.926;2023-05-17T07:00:03;8.73;;;4.47;;
46318;SDS011;32042;50.916;2.926;2023-05-17T07:02:34;6.73;;;4.47;;
46318;SDS011;32042;50.916;2.926;2023-05-17T07:05:00;10.87;;;5.13;;
46318;SDS011;32042;50.916;2.926;2023-05-17T07:07:26;11.13;;;5.43;;
46318;SDS011;32042;50.916;2.926;2023-05-17T07:09:53;11.40;;;4.47;;
46318;SDS011;32042;50.916;2.926;2023-05-17T07:12:19;8.33;;;4.37;;
46318;SDS011;32042;50.916;2.926;2023-05-17T07:14:45;12.93;;;4.80;;
46318;SDS011;32042;50.916;2.926;2023-05-17T07:17:11;7.47;;;4.63;;
46318;SDS011;32042;50.916;2.926;2023-05-17T07:19:37;10.53;;;4.20;;
46318;SDS011;32042;50.916;2.926;2023-05-17T07:22:03;9.87;;;4.67;;
46318;SDS011;32042;50.916;2.926;2023-05-17T07:24:29;8.60;;;4.43;;
46318;SDS011;32042;50.916;2.926;2023-05-17T07:26:56;9.93;;;3.90;;
46318;SDS011;32042;50.916;2.926;2023-05-17T07:29:22;11.27;;;4.13;;
46318;SDS011;32042;50.916;2.926;2023-05-17T07:31:48;7.17;;;4.17;;
46318;SDS011;32042;50.916;2.926;2023-05-17T07:34:14;9.30;;;4.13;;
46318;SDS011;32042;50.916;2.926;2023-05-17T07:36:40;7.40;;;4.17;;
46318;SDS011;32042;50.916;2.926;2023-05-17T07:39:06;11.23;;;4.57;;
46318;SDS011;32042;50.916;2.926;2023-05-17T07:41:33;7.07;;;4.57;;
46318;SDS011;32042;50.916;2.926;2023-05-17T07:44:00;13.03;;;4.67;;
46318;SDS011;32042;50.916;2.926;2023-05-17T07:46:26;6.63;;;4.00;;
46318;SDS011;32042;50.916;2.926;2023-05-17T07:48:52;8.90;;;4.47;;
46318;SDS011;32042;50.916;2.926;2023-05-17T07:51:18;10.90;;;4.20;;
46318;SDS011;32042;50.916;2.926;2023-05-17T07:53:44;9.03;;;4.47;;
46318;SDS011;32042;50.916;2.926;2023-05-17T07:56:10;11.13;;;3.60;;
46318;SDS011;32042;50.916;2.926;2023-05-17T07:58:36;8.17;;;4.00;;
46318;SDS011;32042;50.916;2.926;2023-05-17T08:01:02;6.47;;;3.73;;
46318;SDS011;32042;50.916;2.926;2023-05-17T08:03:28;8.43;;;3.73;;
46318;SDS011;32042;50.916;2.926;2023-05-17T08:05:55;8.83;;;3.53;;
46318;SDS011;32042;50.916;2.926;2023-05-17T08:08:21;8.83;;;4.20;;
46318;SDS011;32042;50.916;2.926;2023-05-17T08:10:47;8.37;;;4.00;;
46318;SDS011;32042;50.916;2.926;2023-05-17T08:13:13;6.53;;;3.60;;
46318;SDS011;32042;50.916;2.926;2023-05-17T08:15:39;10.27;;;4.53;;
46318;SDS011;32042;50.916;2.926;2023-05-17T08:18:05;9.00;;;3.13;;
46318;SDS011;32042;50.916;2.926;2023-05-17T08:20:32;10.50;;;3.83;;
46318;SDS011;32042;50.916;2.926;2023-05-17T08:22:58;14.27;;;4.27;;
46318;SDS011;32042;50.916;2.926;2023-05-17T08:25:24;6.77;;;4.37;;
46318;SDS011;32042;50.916;2.926;2023-05-17T08:27:50;6.10;;;3.60;;
46318;SDS011;32042;50.916;2.926;2023-05-17T08:30:16;6.70;;;3.73;;
46318;SDS011;32042;50.916;2.926;2023-05-17T08:32:42;9.80;;;3.67;;
46318;SDS011;32042;50.916;2.926;2023-05-17T08:35:09;8.27;;;3.55;;
46318;SDS011;32042;50.916;2.926;2023-05-17T08:37:36;7.38;;;3.67;;
46318;SDS011;32042;50.916;2.926;2023-05-17T08:40:03;5.63;;;3.77;;
46318;SDS011;32042;50.916;2.926;2023-05-17T08:42:29;7.68;;;3.63;;
46318;SDS011;32042;50.916;2.926;2023-05-17T08:44:55;5.70;;;3.75;;
46318;SDS011;32042;50.916;2.926;2023-05-17T08:47:21;8.05;;;3.72;;
46318;SDS011;32042;50.916;2.926;2023-05-17T08:49:54;6.03;;;3.40;;
46318;SDS011;32042;50.916;2.926;2023-05-17T08:52:30;8.15;;;3.63;;
46318;SDS011;32042;50.916;2.926;2023-05-17T08:54:56;9.85;;;3.80;;
46318;SDS011;32042;50.916;2.926;2023-05-17T08:57:25;8.07;;;3.93;;
46318;SDS011;32042;50.916;2.926;2023-05-17T08:59:53;11.07;;;3.78;;
46318;SDS011;32042;50.916;2.926;2023-05-17T09:02:20;6.38;;;2.58;;
46318;SDS011;32042;50.916;2.926;2023-05-17T09:04:47;6.18;;;3.50;;
46318;SDS011;32042;50.916;2.926;2023-05-17T09:07:20;4.72;;;2.95;;
46318;SDS011;32042;50.916;2.926;2023-05-17T09:09:47;5.72;;;2.80;;
46318;SDS011;32042;50.916;2.926;2023-05-17T09:12:13;6.45;;;3.40;;
46318;SDS011;32042;50.916;2.926;2023-05-17T09:14:39;4.03;;;2.70;;
46318;SDS011;32042;50.916;2.926;2023-05-17T09:17:05;5.07;;;2.47;;
46318;SDS011;32042;50.916;2.926;2023-05-17T09:19:31;6.25;;;3.10;;
46318;SDS011;32042;50.916;2.926;2023-05-17T09:22:01;11.30;;;3.80;;
46318;SDS011;32042;50.916;2.926;2023-05-17T09:24:28;5.57;;;2.92;;
46318;SDS011;32042;50.916;2.926;2023-05-17T09:26:59;6.00;;;3.00;;
46318;SDS011;32042;50.916;2.926;2023-05-17T09:29:26;7.18;;;3.08;;
46318;SDS011;32042;50.916;2.926;2023-05-17T09:31:55;8.13;;;3.22;;
46318;SDS011;32042;50.916;2.926;2023-05-17T09:34:23;3.72;;;2.70;;
46318;SDS011;32042;50.916;2.926;2023-05-17T09:36:49;9.77;;;3.08;;
46318;SDS011;32042;50.916;2.926;2023-05-17T09:39:16;5.53;;;3.13;;
46318;SDS011;32042;50.916;2.926;2023-05-17T09:41:45;6.57;;;2.50;;
46318;SDS011;32042;50.916;2.926;2023-05-17T09:44:14;5.40;;;2.90;;
46318;SDS011;32042;50.916;2.926;2023-05-17T09:46:41;6.50;;;3.50;;
46318;SDS011;32042;50.916;2.926;2023-05-17T09:49:07;6.18;;;3.38;;
46318;SDS011;32042;50.916;2.926;2023-05-17T09:51:34;5.20;;;2.58;;
46318;SDS011;32042;50.916;2.926;2023-05-17T09:54:00;4.43;;;2.35;;
46318;SDS011;32042;50.916;2.926;2023-05-17T09:56:27;5.93;;;2.70;;
46318;SDS011;32042;50.916;2.926;2023-05-17T09:58:53;6.07;;;2.63;;
46318;SDS011;32042;50.916;2.926;2023-05-17T10:01:20;14.57;;;2.63;;
46318;SDS011;32042;50.916;2.926;2023-05-17T10:03:46;6.20;;;2.45;;
46318;SDS011;32042;50.916;2.926;2023-05-17T10:06:15;5.28;;;2.63;;
46318;SDS011;32042;50.916;2.926;2023-05-17T10:08:44;5.63;;;2.00;;
46318;SDS011;32042;50.916;2.926;2023-05-17T10:11:11;8.95;;;2.45;;
46318;SDS011;32042;50.916;2.926;2023-05-17T10:13:46;4.95;;;2.22;;
46318;SDS011;32042;50.916;2.926;2023-05-17T10:16:14;4.25;;;1.90;;
46318;SDS011;32042;50.916;2.926;2023-05-17T10:18:41;7.00;;;2.40;;
46318;SDS011;32042;50.916;2.926;2023-05-17T10:21:08;4.90;;;2.50;;
46318;SDS011;32042;50.916;2.926;2023-05-17T10:23:35;5.72;;;2.40;;
46318;SDS011;32042;50.916;2.926;2023-05-17T10:26:02;4.68;;;2.53;;
46318;SDS011;32042;50.916;2.926;2023-05-17T10:28:29;6.00;;;2.67;;
46318;SDS011;32042;50.916;2.926;2023-05-17T10:30:55;5.35;;;2.83;;
46318;SDS011;32042;50.916;2.926;2023-05-17T10:33:22;3.90;;;2.25;;
46318;SDS011;32042;50.916;2.926;2023-05-17T10:35:48;6.22;;;2.50;;
46318;SDS011;32042;50.916;2.926;2023-05-17T10:38:15;5.07;;;2.25;;
46318;SDS011;32042;50.916;2.926;2023-05-17T10:40:42;4.50;;;2.55;;
46318;SDS011;32042;50.916;2.926;2023-05-17T10:43:09;6.07;;;2.60;;
46318;SDS011;32042;50.916;2.926;2023-05-17T10:45:36;4.75;;;2.20;;
46318;SDS011;32042;50.916;2.926;2023-05-17T10:48:05;3.88;;;1.98;;
46318;SDS011;32042;50.916;2.926;2023-05-17T10:50:32;4.40;;;2.30;;
46318;SDS011;32042;50.916;2.926;2023-05-17T10:53:02;4.65;;;2.92;;
46318;SDS011;32042;50.916;2.926;2023-05-17T10:55:39;4.57;;;2.55;;
46318;SDS011;32042;50.916;2.926;2023-05-17T10:58:16;8.30;;;3.00;;
46318;SDS011;32042;50.916;2.926;2023-05-17T11:00:47;5.20;;;2.70;;
46318;SDS011;32042;50.916;2.926;2023-05-17T11:03:17;9.15;;;3.25;;
46318;SDS011;32042;50.916;2.926;2023-05-17T11:06:11;5.50;;;2.72;;
46318;SDS011;32042;50.916;2.926;2023-05-17T11:08:31;5.68;;;2.92;;
46318;SDS011;32042;50.916;2.926;2023-05-17T11:13:34;8.48;;;2.53;;
46318;SDS011;32042;50.916;2.926;2023-05-17T11:16:03;5.75;;;2.65;;
46318;SDS011;32042;50.916;2.926;2023-05-17T11:21:26;9.80;;;3.60;;
46318;SDS011;32042;50.916;2.926;2023-05-17T11:23:54;6.75;;;2.95;;
46318;SDS011;32042;50.916;2.926;2023-05-17T11:26:21;7.32;;;2.95;;
46318;SDS011;32042;50.916;2.926;2023-05-17T11:28:51;6.20;;;3.22;;
46318;SDS011;32042;50.916;2.926;2023-05-17T11:31:28;6.97;;;1.98;;
46318;SDS011;32042;50.916;2.926;2023-05-17T11:33:56;3.97;;;2.70;;
46318;SDS011;32042;50.916;2.926;2023-05-17T11:36:24;8.27;;;2.22;;
46318;SDS011;32042;50.916;2.926;2023-05-17T11:39:12;7.90;;;2.58;;
46318;SDS011;32042;50.916;2.926;2023-05-17T11:41:37;10.15;;;2.67;;
46318;SDS011;32042;50.916;2.926;2023-05-17T11:44:07;6.65;;;2.20;;
46318;SDS011;32042;50.916;2.926;2023-05-17T11:46:34;4.88;;;1.95;;
46318;SDS011;32042;50.916;2.926;2023-05-17T11:49:00;4.50;;;2.25;;
46318;SDS011;32042;50.916;2.926;2023-05-17T11:51:26;5.55;;;2.58;;
46318;SDS011;32042;50.916;2.926;2023-05-17T11:53:53;8.70;;;2.95;;
46318;SDS011;32042;50.916;2.926;2023-05-17T11:56:19;4.90;;;2.55;;
46318;SDS011;32042;50.916;2.926;2023-05-17T11:58:49;8.93;;;2.60;;
46318;SDS011;32042;50.916;2.926;2023-05-17T12:01:15;4.95;;;2.58;;
46318;SDS011;32042;50.916;2.926;2023-05-17T12:03:41;9.10;;;3.15;;
46318;SDS011;32042;50.916;2.926;2023-05-17T12:06:08;5.28;;;2.33;;
46318;SDS011;32042;50.916;2.926;2023-05-17T12:08:36;11.77;;;2.28;;
46318;SDS011;32042;50.916;2.926;2023-05-17T12:11:03;6.15;;;2.15;;
46318;SDS011;32042;50.916;2.926;2023-05-17T12:13:30;6.03;;;1.98;;
46318;SDS011;32042;50.916;2.926;2023-05-17T12:15:57;7.93;;;2.67;;
46318;SDS011;32042;50.916;2.926;2023-05-17T12:21:02;6.57;;;2.63;;
46318;SDS011;32042;50.916;2.926;2023-05-17T12:23:33;12.15;;;3.30;;
46318;SDS011;32042;50.916;2.926;2023-05-17T12:28:31;4.93;;;2.20;;
46318;SDS011;32042;50.916;2.926;2023-05-17T12:30:57;4.53;;;2.38;;
46318;SDS011;32042;50.916;2.926;2023-05-17T12:33:28;7.57;;;2.90;;
46318;SDS011;32042;50.916;2.926;2023-05-17T12:35:54;9.02;;;2.47;;
46318;SDS011;32042;50.916;2.926;2023-05-17T12:38:21;7.60;;;2.80;;
46318;SDS011;32042;50.916;2.926;2023-05-17T12:40:47;4.75;;;2.30;;
46318;SDS011;32042;50.916;2.926;2023-05-17T12:43:13;8.90;;;2.15;;
46318;SDS011;32042;50.916;2.926;2023-05-17T12:45:42;8.30;;;2.65;;
46318;SDS011;32042;50.916;2.926;2023-05-17T12:48:08;9.63;;;2.60;;
46318;SDS011;32042;50.916;2.926;2023-05-17T12:50:34;13.05;;;2.67;;
46318;SDS011;32042;50.916;2.926;2023-05-17T12:53:06;5.93;;;2.08;;
46318;SDS011;32042;50.916;2.926;2023-05-17T12:55:36;5.72;;;2.20;;
46318;SDS011;32042;50.916;2.926;2023-05-17T12:58:02;6.82;;;2.03;;
46318;SDS011;32042;50.916;2.926;2023-05-17T13:00:28;5.57;;;2.03;;
46318;SDS011;32042;50.916;2.926;2023-05-17T13:02:55;12.32;;;2.50;;
46318;SDS011;32042;50.916;2.926;2023-05-17T13:05:21;5.80;;;2.42;;
46318;SDS011;32042;50.916;2.926;2023-05-17T13:07:47;11.38;;;2.22;;
46318;SDS011;32042;50.916;2.926;2023-05-17T13:10:20;5.60;;;2.03;;
46318;SDS011;32042;50.916;2.926;2023-05-17T13:13:07;6.13;;;2.20;;
46318;SDS011;32042;50.916;2.926;2023-05-17T13:15:33;15.57;;;2.60;;
46318;SDS011;32042;50.916;2.926;2023-05-17T13:18:00;9.20;;;2.63;;
46318;SDS011;32042;50.916;2.926;2023-05-17T13:20:37;5.25;;;1.90;;
46318;SDS011;32042;50.916;2.926;2023-05-17T13:23:04;5.35;;;1.95;;
46318;SDS011;32042;50.916;2.926;2023-05-17T13:25:31;8.30;;;2.17;;
46318;SDS011;32042;50.916;2.926;2023-05-17T13:27:57;4.43;;;1.83;;
46318;SDS011;32042;50.916;2.926;2023-05-17T13:30:23;5.55;;;1.70;;
46318;SDS011;32042;50.916;2.926;2023-05-17T13:32:49;7.97;;;2.38;;
46318;SDS011;32042;50.916;2.926;2023-05-17T13:35:15;4.82;;;1.70;;
46318;SDS011;32042;50.916;2.926;2023-05-17T13:37:41;6.72;;;1.85;;
46318;SDS011;32042;50.916;2.926;2023-05-17T13:40:07;7.95;;;2.40;;
46318;SDS011;32042;50.916;2.926;2023-05-17T13:42:33;4.32;;;1.92;;
46318;SDS011;32042;50.916;2.926;2023-05-17T13:45:00;5.97;;;1.63;;
46318;SDS011;32042;50.916;2.926;2023-05-17T13:47:27;4.43;;;1.90;;
46318;SDS011;32042;50.916;2.926;2023-05-17T13:49:54;6.30;;;2.20;;
46318;SDS011;32042;50.916;2.926;2023-05-17T13:52:20;5.68;;;1.67;;
46318;SDS011;32042;50.916;2.926;2023-05-17T13:54:47;7.13;;;1.80;;
46318;SDS011;32042;50.916;2.926;2023-05-17T13:57:13;4.18;;;2.40;;
46318;SDS011;32042;50.916;2.926;2023-05-17T13:59:39;5.88;;;1.55;;
46318;SDS011;32042;50.916;2.926;2023-05-17T14:02:05;9.50;;;2.35;;
46318;SDS011;32042;50.916;2.926;2023-05-17T14:04:33;7.40;;;1.58;;
46318;SDS011;32042;50.916;2.926;2023-05-17T14:06:59;6.15;;;1.70;;
46318;SDS011;32042;50.916;2.926;2023-05-17T14:09:26;6.47;;;1.63;;
46318;SDS011;32042;50.916;2.926;2023-05-17T14:11:56;5.63;;;1.70;;
46318;SDS011;32042;50.916;2.926;2023-05-17T14:14:23;7.43;;;1.73;;
46318;SDS011;32042;50.916;2.926;2023-05-17T14:16:52;7.32;;;2.00;;
46318;SDS011;32042;50.916;2.926;2023-05-17T14:19:18;6.10;;;1.70;;
46318;SDS011;32042;50.916;2.926;2023-05-17T14:21:45;4.65;;;1.73;;
46318;SDS011;32042;50.916;2.926;2023-05-17T14:24:11;7.32;;;2.13;;
46318;SDS011;32042;50.916;2.926;2023-05-17T14:26:37;5.15;;;1.55;;
46318;SDS011;32042;50.916;2.926;2023-05-17T14:29:03;5.20;;;2.40;;
46318;SDS011;32042;50.916;2.926;2023-05-17T14:31:30;6.75;;;1.83;;
46318;SDS011;32042;50.916;2.926;2023-05-17T14:33:56;6.15;;;2.20;;
46318;SDS011;32042;50.916;2.926;2023-05-17T14:36:23;6.53;;;1.80;;
46318;SDS011;32042;50.916;2.926;2023-05-17T14:38:50;3.92;;;2.20;;
46318;SDS011;32042;50.916;2.926;2023-05-17T14:41:16;11.95;;;2.85;;
46318;SDS011;32042;50.916;2.926;2023-05-17T14:43:42;6.20;;;1.70;;
46318;SDS011;32042;50.916;2.926;2023-05-17T14:46:08;10.40;;;1.88;;
46318;SDS011;32042;50.916;2.926;2023-05-17T14:48:34;5.10;;;2.10;;
46318;SDS011;32042;50.916;2.926;2023-05-17T14:51:01;14.73;;;2.38;;
46318;SDS011;32042;50.916;2.926;2023-05-17T14:53:28;4.38;;;1.75;;
46318;SDS011;32042;50.916;2.926;2023-05-17T14:55:55;6.57;;;1.83;;
46318;SDS011;32042;50.916;2.926;2023-05-17T14:58:21;14.00;;;2.30;;
46318;SDS011;32042;50.916;2.926;2023-05-17T15:00:47;6.60;;;2.00;;
46318;SDS011;32042;50.916;2.926;2023-05-17T15:03:18;8.70;;;1.95;;
46318;SDS011;32042;50.916;2.926;2023-05-17T15:05:46;10.68;;;2.03;;
46318;SDS011;32042;50.916;2.926;2023-05-17T15:08:17;4.28;;;1.75;;